Time;durP1;ratioP1;P1;durP2;ratioP2;P2;SDS_P1;SDS_P2;PMS_P1;PMS_P2;Temp;Humidity;BMP_temperature;BMP_pressure;BME280_temperature;BME280_humidity;BME280_pressure;Samples;Min_cycle;Max_cycle;Signal;HPM_P1;HPM_P2
2023/01/27 00:00:34;;;;;;;8.43;5.63;;;;;;;1.10;100.00;93772.69;6271490;22;20179;-74
2023/01/27 00:03:03;;;;;;;10.20;6.10;;;;;;;1.12;100.00;93775.88;6270263;22;20485;-78
2023/01/27 00:05:29;;;;;;;8.40;5.40;;;;;;;1.11;100.00;93784.50;6269256;22;20181;-74
2023/01/27 00:07:57;;;;;;;9.00;5.63;;;;;;;1.05;100.00;93782.66;6271146;22;20666;-75
2023/01/27 00:10:24;;;;;;;8.53;5.50;;;;;;;1.03;100.00;93769.28;6270903;22;20165;-73
2023/01/27 00:15:38;;;;;;;9.50;5.57;;;;;;;1.09;100.00;93766.00;6269853;22;20784;-74
2023/01/27 00:18:07;;;;;;;8.60;5.27;;;;;;;1.18;100.00;93773.53;6271085;22;20195;-75
2023/01/27 00:26:06;;;;;;;8.40;5.50;;;;;;;1.15;100.00;93744.00;6271848;22;20159;-74
2023/01/27 00:28:33;;;;;;;8.43;5.80;;;;;;;1.19;100.00;93758.00;6269473;22;20179;-74
2023/01/27 00:31:00;;;;;;;8.20;5.57;;;;;;;1.14;100.00;93742.41;6269653;22;20183;-74
2023/01/27 00:33:28;;;;;;;8.27;5.80;;;;;;;1.19;100.00;93744.41;6271474;22;20187;-74
2023/01/27 00:36:00;;;;;;;9.03;5.90;;;;;;;1.22;100.00;93738.94;6268803;22;20190;-73
2023/01/27 00:38:28;;;;;;;9.10;6.23;;;;;;;1.23;100.00;93754.13;6268086;22;20178;-73
2023/01/27 00:43:39;;;;;;;9.03;6.53;;;;;;;1.23;100.00;93745.63;6270382;22;20622;-73
2023/01/27 00:46:06;;;;;;;10.67;7.20;;;;;;;1.19;100.00;93734.97;6269370;22;20728;-73
2023/01/27 00:48:34;;;;;;;10.30;7.43;;;;;;;1.22;100.00;93742.28;6269913;22;20165;-73
2023/01/27 00:51:01;;;;;;;10.30;6.83;;;;;;;1.27;100.00;93762.22;6270663;22;20169;-73
2023/01/27 00:53:28;;;;;;;12.20;7.83;;;;;;;1.24;100.00;93760.78;6268837;22;20171;-73
2023/01/27 00:55:57;;;;;;;10.63;7.47;;;;;;;1.25;100.00;93756.47;6269180;22;20273;-74
2023/01/27 00:58:23;;;;;;;10.57;6.67;;;;;;;1.26;100.00;93752.94;6269979;22;20284;-73
2023/01/27 01:00:53;;;;;;;10.67;6.80;;;;;;;1.16;100.00;93750.69;6268355;22;20172;-77
2023/01/27 01:03:19;;;;;;;9.10;6.57;;;;;;;1.22;100.00;93747.41;6268479;22;20185;-76
2023/01/27 01:05:48;;;;;;;11.50;6.73;;;;;;;1.15;100.00;93752.44;6271018;22;20531;-77
2023/01/27 01:08:15;;;;;;;10.90;6.40;;;;;;;1.21;100.00;93743.28;6269514;22;20758;-77
2023/01/27 01:10:42;;;;;;;11.10;6.33;;;;;;;1.23;100.00;93746.44;6269237;22;20548;-76
2023/01/27 01:13:10;;;;;;;10.20;6.73;;;;;;;1.26;100.00;93750.41;6271564;22;20180;-77
2023/01/27 01:15:37;;;;;;;9.63;6.73;;;;;;;1.23;100.00;93749.00;6269259;22;20300;-77
2023/01/27 01:18:05;;;;;;;10.37;6.43;;;;;;;1.16;100.00;93750.69;6267637;22;20201;-77
2023/01/27 01:20:37;;;;;;;10.43;6.87;;;;;;;1.29;100.00;93755.13;6270721;22;20168;-77
2023/01/27 01:23:06;;;;;;;9.53;6.40;;;;;;;1.25;100.00;93751.34;6268524;22;20164;-77
2023/01/27 01:25:33;;;;;;;8.43;6.27;;;;;;;1.22;100.00;93759.41;6268426;22;20179;-77
2023/01/27 01:28:00;;;;;;;10.30;6.67;;;;;;;1.19;100.00;93754.66;6270137;22;20256;-77
2023/01/27 01:30:27;;;;;;;9.43;5.97;;;;;;;1.27;100.00;93744.31;6268219;22;20789;-76
2023/01/27 01:32:57;;;;;;;8.70;6.20;;;;;;;1.33;100.00;93753.81;6268171;22;20187;-76
2023/01/27 01:35:34;;;;;;;14.00;8.33;;;;;;;1.34;100.00;93763.06;6269777;22;20211;-76
2023/01/27 01:38:05;;;;;;;16.13;9.77;;;;;;;1.35;100.00;93762.88;6267525;22;20171;-79
2023/01/27 01:40:35;;;;;;;20.47;10.50;;;;;;;1.29;100.00;93758.50;6268284;22;20205;-79
2023/01/27 01:43:26;;;;;;;15.63;9.60;;;;;;;0.99;100.00;93764.69;6268794;22;20246;-80
2023/01/27 01:45:58;;;;;;;18.37;9.77;;;;;;;0.85;100.00;93771.44;6268885;22;20245;-77
2023/01/27 01:48:31;;;;;;;14.03;8.80;;;;;;;0.63;100.00;93769.03;6268086;22;20156;-79
2023/01/27 01:51:00;;;;;;;18.60;10.90;;;;;;;0.43;100.00;93756.03;6268640;22;20156;-78
2023/01/27 01:53:36;;;;;;;20.10;12.03;;;;;;;0.32;100.00;93747.03;6269855;22;20634;-81
2023/01/27 01:56:12;;;;;;;20.83;12.23;;;;;;;0.36;100.00;93744.94;6267909;22;20197;-80
2023/01/27 01:58:39;;;;;;;20.97;12.30;;;;;;;0.47;100.00;93737.59;6267387;22;20166;-78
2023/01/27 02:01:17;;;;;;;17.63;10.43;;;;;;;0.62;100.00;93741.88;6269481;22;20222;-77
2023/01/27 02:03:54;;;;;;;12.97;7.80;;;;;;;0.68;100.00;93738.63;6268053;22;20175;-78
2023/01/27 02:06:26;;;;;;;12.73;8.83;;;;;;;0.63;100.00;93723.03;6267400;22;20173;-78
2023/01/27 02:08:59;;;;;;;14.03;8.27;;;;;;;0.80;100.00;93721.84;6270560;22;20299;-78
2023/01/27 02:11:28;;;;;;;12.00;8.00;;;;;;;0.79;100.00;93718.47;6269162;22;20161;-75
2023/01/27 02:13:56;;;;;;;12.20;7.77;;;;;;;0.86;100.00;93716.78;6269000;22;20167;-76
2023/01/27 02:16:23;;;;;;;13.70;8.90;;;;;;;0.88;100.00;93708.91;6271372;22;20198;-75
2023/01/27 02:18:51;;;;;;;14.97;9.50;;;;;;;0.90;100.00;93702.66;6209894;23;20173;-75
2023/01/27 02:21:18;;;;;;;16.17;9.83;;;;;;;0.89;100.00;93697.72;6209800;23;20256;-75
2023/01/27 02:24:00;;;;;;;17.13;10.37;;;;;;;0.93;100.00;93696.38;6210850;23;20173;-75
2023/01/27 02:26:33;;;;;;;19.40;10.07;;;;;;;0.92;100.00;93675.16;6211363;23;20154;-76
2023/01/27 02:29:07;;;;;;;14.83;9.10;;;;;;;1.07;100.00;93678.41;6209387;23;20161;-76
2023/01/27 02:31:37;;;;;;;14.67;8.30;;;;;;;1.14;100.00;93686.13;6208719;23;20173;-75
2023/01/27 02:34:24;;;;;;;15.90;8.67;;;;;;;1.12;100.00;93688.09;6211336;23;20506;-75
2023/01/27 02:37:01;;;;;;;9.93;6.40;;;;;;;1.14;100.00;93688.69;6207451;23;20192;-75
2023/01/27 02:39:32;;;;;;;9.70;5.83;;;;;;;1.12;100.00;93693.22;6209194;23;20161;-74
2023/01/27 02:45:50;;;;;;;8.73;5.77;;;;;;;1.25;100.00;93684.84;6204368;23;20614;-79
2023/01/27 02:48:17;;;;;;;8.40;5.70;;;;;;;1.23;100.00;93692.72;6210469;23;20197;-78
2023/01/27 02:51:01;;;;;;;9.53;5.73;;;;;;;1.17;100.00;93687.53;6209251;23;20245;-79
2023/01/27 02:53:54;;;;;;;7.63;5.43;;;;;;;1.23;100.00;93705.50;6210287;23;20263;-78
2023/01/27 02:56:41;;;;;;;8.60;5.30;;;;;;;1.26;100.00;93696.66;6211293;23;20193;-78
2023/01/27 02:59:14;;;;;;;9.20;5.90;;;;;;;1.04;100.00;93698.44;6210392;23;20165;-77
2023/01/27 03:01:42;;;;;;;11.83;6.83;;;;;;;0.99;100.00;93699.00;6207489;23;20779;-77
2023/01/27 03:04:10;;;;;;;10.20;7.00;;;;;;;0.83;100.00;93681.34;6210099;23;20170;-76
2023/01/27 03:06:37;;;;;;;18.20;9.90;;;;;;;0.92;100.00;93687.13;6210329;23;20178;-78
2023/01/27 03:09:05;;;;;;;17.13;10.30;;;;;;;0.94;100.00;93682.63;6208807;23;20181;-76
2023/01/27 03:14:15;;;;;;;33.23;15.63;;;;;;;0.77;100.00;93674.41;6210831;23;20205;-79
2023/01/27 03:19:54;;;;;;;24.07;13.30;;;;;;;0.72;100.00;93670.81;6268602;22;20255;-80
2023/01/27 03:22:25;;;;;;;19.77;11.47;;;;;;;0.61;100.00;93656.75;6267916;22;20184;-79
2023/01/27 03:25:00;;;;;;;19.60;10.83;;;;;;;0.67;100.00;93656.03;6268623;22;20165;-80
2023/01/27 03:27:26;;;;;;;14.70;8.70;;;;;;;0.73;100.00;93657.84;6270059;22;20151;-80
2023/01/27 03:29:56;;;;;;;10.70;7.03;;;;;;;0.78;100.00;93660.66;6270170;22;20952;-80
2023/01/27 03:32:27;;;;;;;11.23;6.90;;;;;;;0.83;100.00;93658.34;6271527;22;20183;-79
2023/01/27 03:34:56;;;;;;;9.53;6.47;;;;;;;0.93;100.00;93656.25;6269408;22;20157;-78
2023/01/27 03:48:24;;;;;;;9.60;5.70;;;;;;;1.15;100.00;93624.56;6269690;22;20631;-75
2023/01/27 03:50:52;;;;;;;10.13;6.47;;;;;;;1.23;100.00;93621.09;6271874;22;20227;-75
2023/01/27 03:53:20;;;;;;;9.67;5.90;;;;;;;1.22;100.00;93619.50;6269613;22;20206;-75
2023/01/27 03:55:47;;;;;;;8.87;5.33;;;;;;;1.24;100.00;93624.44;6270071;22;20186;-76
2023/01/27 03:58:18;;;;;;;7.40;5.33;;;;;;;1.25;100.00;93624.22;6271748;22;20222;-75
2023/01/27 04:00:46;;;;;;;8.23;5.23;;;;;;;1.30;100.00;93627.00;6270008;22;20164;-75
2023/01/27 04:08:47;;;;;;;8.97;6.20;;;;;;;1.24;100.00;93644.91;6270650;22;20203;-75
2023/01/27 04:14:00;;;;;;;7.57;5.70;;;;;;;1.23;100.00;93661.22;6269820;22;20491;-74
2023/01/27 04:16:29;;;;;;;12.20;5.87;;;;;;;1.19;100.00;93677.91;6271558;22;20192;-75
2023/01/27 04:18:55;;;;;;;8.97;5.73;;;;;;;1.15;100.00;93688.50;6269533;22;20192;-75
2023/01/27 04:21:25;;;;;;;7.67;5.50;;;;;;;1.13;100.00;93687.91;6269566;22;20520;-74
2023/01/27 04:23:52;;;;;;;7.97;5.40;;;;;;;1.07;100.00;93680.97;6271248;22;20250;-74
2023/01/27 04:26:19;;;;;;;9.37;5.57;;;;;;;1.18;100.00;93689.94;6268946;22;20171;-74
2023/01/27 04:28:46;;;;;;;11.40;6.13;;;;;;;1.27;100.00;93703.38;6269120;22;20638;-74
2023/01/27 04:31:13;;;;;;;8.20;5.80;;;;;;;1.27;100.00;93691.34;6271396;22;20248;-74
2023/01/27 04:33:40;;;;;;;10.70;6.07;;;;;;;1.30;100.00;93708.13;6269039;22;20248;-74
2023/01/27 04:36:07;;;;;;;10.40;6.50;;;;;;;1.22;100.00;93724.38;6269341;22;20233;-74
2023/01/27 04:38:35;;;;;;;9.70;6.50;;;;;;;1.26;100.00;93712.00;6270271;22;20245;-75
2023/01/27 04:41:02;;;;;;;13.83;6.70;;;;;;;1.33;100.00;93711.09;6268309;22;20233;-70
2023/01/27 04:43:29;;;;;;;7.87;5.80;;;;;;;1.31;100.00;93710.47;6269361;22;20254;-72
2023/01/27 04:45:55;;;;;;;14.97;9.63;;;;;;;1.31;100.00;93714.81;6270948;22;20168;-70
2023/01/27 04:48:22;;;;;;;9.83;6.97;;;;;;;1.31;100.00;93715.59;6269008;22;20230;-71
2023/01/27 04:50:49;;;;;;;18.50;8.97;;;;;;;1.40;100.00;93709.38;6268907;22;20913;-71
2023/01/27 04:53:16;;;;;;;21.00;12.20;;;;;;;1.41;100.00;93703.28;6271021;22;20176;-71
2023/01/27 04:55:47;;;;;;;21.70;11.10;;;;;;;1.35;100.00;93721.16;6267195;22;20179;-70
2023/01/27 04:58:17;;;;;;;16.87;9.23;;;;;;;1.21;100.00;93740.72;6268936;22;20200;-71
2023/01/27 05:00:45;;;;;;;13.43;9.20;;;;;;;1.24;100.00;93737.75;6270521;22;20223;-70
2023/01/27 05:03:11;;;;;;;18.10;11.60;;;;;;;1.33;100.00;93723.88;6267570;22;20175;-71
2023/01/27 05:05:39;;;;;;;38.00;22.47;;;;;;;1.29;100.00;93717.56;6268413;22;20230;-70
2023/01/27 05:08:07;;;;;;;37.97;22.63;;;;;;;1.33;100.00;93726.44;6270528;22;20184;-70
2023/01/27 05:10:34;;;;;;;39.17;22.97;;;;;;;1.31;100.00;93722.47;6268552;22;20160;-70
2023/01/27 05:13:03;;;;;;;45.00;24.60;;;;;;;1.25;100.00;93725.78;6267788;22;20650;-70
2023/01/27 05:15:30;;;;;;;40.07;23.60;;;;;;;1.07;100.00;93710.84;6270813;22;20190;-70
2023/01/27 05:17:57;;;;;;;32.80;21.23;;;;;;;1.20;100.00;93713.53;6268265;22;20655;-69
2023/01/27 05:20:24;;;;;;;39.97;23.37;;;;;;;1.22;100.00;93713.34;6268040;22;20208;-73
2023/01/27 05:22:51;;;;;;;33.90;19.37;;;;;;;1.21;100.00;93709.22;6270314;22;20226;-71
2023/01/27 05:25:17;;;;;;;32.63;17.77;;;;;;;1.19;100.00;93723.94;6268892;22;20190;-71
2023/01/27 05:27:44;;;;;;;31.73;17.60;;;;;;;1.05;100.00;93716.16;6268924;22;20168;-71
2023/01/27 05:30:13;;;;;;;33.33;18.47;;;;;;;0.91;100.00;93706.81;6270755;22;20627;-71
2023/01/27 05:32:40;;;;;;;35.27;18.73;;;;;;;0.88;100.00;93704.59;6268930;22;20176;-72
2023/01/27 05:35:08;;;;;;;35.57;19.03;;;;;;;0.90;100.00;93694.97;6268115;22;20236;-70
2023/01/27 05:37:34;;;;;;;43.07;17.67;;;;;;;0.73;100.00;93691.09;6270693;22;20248;-71
2023/01/27 05:40:01;;;;;;;33.67;17.80;;;;;;;0.56;100.00;93698.19;6268329;22;20180;-70
2023/01/27 05:42:28;;;;;;;33.73;17.77;;;;;;;0.49;100.00;93684.53;6268146;22;20250;-73
2023/01/27 05:44:55;;;;;;;35.57;19.00;;;;;;;0.39;100.00;93683.25;6269357;22;20203;-72
2023/01/27 05:47:23;;;;;;;31.13;16.33;;;;;;;0.30;100.00;93690.25;6266945;22;20328;-72
2023/01/27 05:49:50;;;;;;;32.50;16.63;;;;;;;0.41;100.00;93689.78;6268408;22;20171;-72
2023/01/27 05:52:16;;;;;;;31.30;15.40;;;;;;;0.48;100.00;93682.97;6272386;22;20637;-72
2023/01/27 05:54:43;;;;;;;29.30;14.93;;;;;;;0.31;100.00;93678.25;6270264;22;20674;-73
2023/01/27 05:57:10;;;;;;;25.90;15.17;;;;;;;0.31;100.00;93686.72;6270245;22;20193;-72
2023/01/27 05:59:37;;;;;;;23.53;13.57;;;;;;;0.42;100.00;93698.22;6272227;22;20612;-71
2023/01/27 06:02:03;;;;;;;21.67;10.50;;;;;;;0.42;100.00;93681.16;6270007;22;20176;-71
2023/01/27 06:04:31;;;;;;;24.20;12.30;;;;;;;0.63;100.00;93705.94;6270135;22;20162;-72
2023/01/27 06:06:59;;;;;;;22.20;13.67;;;;;;;0.72;100.00;93712.53;6267563;22;20622;-72
2023/01/27 06:09:26;;;;;;;24.63;13.87;;;;;;;0.79;100.00;93705.69;6267912;22;20173;-72
2023/01/27 06:11:53;;;;;;;22.33;12.63;;;;;;;0.70;100.00;93690.66;6269715;22;20223;-72
2023/01/27 06:14:19;;;;;;;17.07;9.93;;;;;;;0.49;100.00;93696.56;6271645;22;20172;-71
2023/01/27 06:16:47;;;;;;;21.03;10.43;;;;;;;0.31;100.00;93696.16;6270102;22;20566;-71
2023/01/27 06:19:14;;;;;;;21.93;12.13;;;;;;;0.27;100.00;93705.94;6270892;22;20226;-71
2023/01/27 06:21:42;;;;;;;19.67;10.80;;;;;;;0.23;100.00;93702.13;6271921;22;20195;-71
2023/01/27 06:24:09;;;;;;;24.53;12.87;;;;;;;0.13;100.00;93698.28;6268560;22;20196;-71
2023/01/27 06:26:36;;;;;;;24.43;12.10;;;;;;;-0.06;100.00;93704.75;6268417;22;20549;-71
2023/01/27 06:29:03;;;;;;;25.13;13.10;;;;;;;0.03;100.00;93708.75;6271304;22;20625;-72
2023/01/27 06:31:30;;;;;;;21.37;12.33;;;;;;;0.06;100.00;93713.53;6270277;22;20624;-71
2023/01/27 06:33:56;;;;;;;22.40;13.10;;;;;;;0.14;100.00;93715.19;6269592;22;20231;-71
2023/01/27 06:36:23;;;;;;;25.77;14.23;;;;;;;0.28;100.00;93715.19;6271800;22;20173;-70
2023/01/27 06:38:51;;;;;;;21.80;12.27;;;;;;;0.14;100.00;93710.88;6269774;22;20201;-71
2023/01/27 06:41:19;;;;;;;26.43;16.13;;;;;;;0.04;100.00;93692.47;6269283;22;20173;-70
2023/01/27 06:43:45;;;;;;;35.33;22.47;;;;;;;0.12;100.00;93702.59;6271520;22;20579;-71
2023/01/27 06:46:13;;;;;;;37.77;23.37;;;;;;;0.05;100.00;93719.63;6269788;22;20515;-71
2023/01/27 06:48:40;;;;;;;38.43;24.90;;;;;;;0.22;100.00;93720.19;6270084;22;20219;-70
2023/01/27 06:51:07;;;;;;;35.43;21.47;;;;;;;0.26;100.00;93712.00;6270959;22;20178;-71
2023/01/27 06:53:36;;;;;;;37.17;22.33;;;;;;;0.31;100.00;93714.03;6270035;22;20270;-71
2023/01/27 06:56:04;;;;;;;42.87;26.93;;;;;;;0.25;100.00;93724.97;6269857;22;20246;-70
2023/01/27 06:58:31;;;;;;;47.63;28.60;;;;;;;0.38;100.00;93728.44;6271981;22;20193;-71
2023/01/27 07:00:58;;;;;;;44.50;26.50;;;;;;;0.43;100.00;93725.38;6269834;22;20231;-71
2023/01/27 07:03:25;;;;;;;43.13;23.27;;;;;;;0.53;100.00;93724.09;6270007;22;20164;-71
2023/01/27 07:05:53;;;;;;;35.77;21.23;;;;;;;0.70;100.00;93729.78;6271053;22;20177;-71
2023/01/27 07:08:20;;;;;;;36.97;20.10;;;;;;;0.74;100.00;93718.25;6269767;22;20165;-71
2023/01/27 07:10:46;;;;;;;33.63;17.93;;;;;;;0.83;100.00;93734.25;6269766;22;20503;-71
2023/01/27 07:13:15;;;;;;;30.40;17.20;;;;;;;0.85;100.00;93743.31;6271990;22;20534;-71
2023/01/27 07:15:42;;;;;;;32.17;18.40;;;;;;;0.88;100.00;93739.59;6269847;22;20183;-71
2023/01/27 07:18:10;;;;;;;29.67;17.90;;;;;;;0.95;100.00;93741.25;6269288;22;20201;-70
2023/01/27 07:20:37;;;;;;;23.70;14.43;;;;;;;1.05;100.00;93731.50;6270879;22;20176;-72
2023/01/27 07:23:05;;;;;;;32.10;16.17;;;;;;;1.08;100.00;93738.03;6269512;22;20176;-70
2023/01/27 07:25:34;;;;;;;20.73;12.37;;;;;;;1.08;100.00;93738.81;6268906;22;20181;-70
2023/01/27 07:28:01;;;;;;;21.67;12.87;;;;;;;0.92;100.00;93710.94;6271715;22;20230;-70
2023/01/27 07:30:30;;;;;;;19.53;12.27;;;;;;;0.79;100.00;93728.72;6270214;22;20165;-72
2023/01/27 07:33:03;;;;;;;16.10;9.80;;;;;;;0.69;100.00;93722.31;6269354;22;20172;-71
2023/01/27 07:35:30;;;;;;;17.10;10.07;;;;;;;0.64;100.00;93724.59;6269570;22;20157;-71
2023/01/27 07:37:57;;;;;;;21.27;12.07;;;;;;;0.35;100.00;93707.56;6270550;22;20688;-70
2023/01/27 07:40:24;;;;;;;21.87;14.70;;;;;;;0.43;100.00;93733.81;6269476;22;20687;-70
2023/01/27 07:42:50;;;;;;;31.63;19.87;;;;;;;0.39;100.00;93736.91;6270542;22;20659;-72
2023/01/27 07:45:17;;;;;;;29.03;19.20;;;;;;;0.40;100.00;93734.19;6270426;22;20161;-71
2023/01/27 07:47:45;;;;;;;29.17;19.63;;;;;;;0.52;100.00;93737.84;6269500;22;20170;-71
2023/01/27 07:50:12;;;;;;;35.50;21.17;;;;;;;0.56;100.00;93735.72;6269712;22;20488;-72
2023/01/27 07:52:39;;;;;;;34.43;20.30;;;;;;;0.55;100.00;93736.69;6269787;22;20177;-71
2023/01/27 07:55:06;;;;;;;34.17;21.30;;;;;;;0.58;100.00;93732.03;6267446;22;20177;-71
2023/01/27 07:57:33;;;;;;;39.90;20.30;;;;;;;0.64;100.00;93737.38;6269727;22;20307;-71
2023/01/27 08:00:00;;;;;;;35.07;18.97;;;;;;;0.73;100.00;93742.22;6270787;22;20168;-71
2023/01/27 08:02:27;;;;;;;31.50;16.97;;;;;;;0.73;100.00;93749.06;6269665;22;20167;-71
2023/01/27 08:04:55;;;;;;;40.53;21.33;;;;;;;0.73;100.00;93734.53;6269095;22;20175;-71
2023/01/27 08:07:22;;;;;;;36.97;19.63;;;;;;;0.76;100.00;93715.50;6269885;22;20240;-71
2023/01/27 08:09:49;;;;;;;39.73;20.80;;;;;;;0.95;100.00;93731.00;6268457;22;20472;-71
2023/01/27 08:12:15;;;;;;;39.97;22.07;;;;;;;1.12;100.00;93740.06;6267102;22;20701;-71
2023/01/27 08:14:42;;;;;;;25.17;13.67;;;;;;;1.28;100.00;93728.75;6269375;22;20662;-71
2023/01/27 08:17:09;;;;;;;24.00;14.27;;;;;;;1.37;100.00;93724.31;6268997;22;20215;-71
2023/01/27 08:19:36;;;;;;;17.87;10.03;;;;;;;1.47;100.00;93732.47;6269142;22;20200;-71
2023/01/27 08:22:04;;;;;;;14.20;7.97;;;;;;;1.57;100.00;93728.59;6270814;22;20226;-71
2023/01/27 08:24:31;;;;;;;12.17;6.93;;;;;;;1.68;100.00;93724.72;6269115;22;20172;-71
2023/01/27 08:26:57;;;;;;;9.70;6.43;;;;;;;1.67;100.00;93735.97;6269558;22;20173;-71
2023/01/27 08:29:24;;;;;;;8.90;5.80;;;;;;;1.83;100.00;93740.78;6270737;22;20222;-71
2023/01/27 08:31:51;;;;;;;8.97;5.60;;;;;;;1.88;100.00;93741.00;6270632;22;20175;-79
2023/01/27 08:34:18;;;;;;;6.80;4.83;;;;;;;1.94;100.00;93745.38;6269343;22;20183;-74
2023/01/27 08:36:44;;;;;;;9.97;6.43;;;;;;;1.93;100.00;93740.47;6271496;22;20227;-73
2023/01/27 08:39:12;;;;;;;15.63;9.30;;;;;;;1.58;100.00;93752.44;6268848;22;20199;-74
2023/01/27 08:41:39;;;;;;;16.87;10.17;;;;;;;1.10;100.00;93754.78;6268114;22;20241;-73
2023/01/27 08:44:06;;;;;;;15.53;9.73;;;;;;;0.88;100.00;93742.97;6268071;22;20183;-74
2023/01/27 08:46:33;;;;;;;15.23;8.63;;;;;;;0.96;100.00;93760.75;6268221;22;20191;-74
2023/01/27 08:49:00;;;;;;;15.07;9.07;;;;;;;0.88;100.00;93757.50;6268448;22;20165;-75
2023/01/27 08:51:27;;;;;;;17.87;10.90;;;;;;;0.85;100.00;93755.31;6271078;22;20177;-74
2023/01/27 08:53:54;;;;;;;12.37;8.40;;;;;;;0.85;100.00;93756.09;6268668;22;20251;-75
2023/01/27 08:56:22;;;;;;;8.90;6.40;;;;;;;1.03;100.00;93755.69;6268480;22;20504;-75
2023/01/27 08:58:51;;;;;;;8.00;5.60;;;;;;;1.12;100.00;93745.16;6270935;22;20246;-82
2023/01/27 09:01:19;;;;;;;8.40;6.27;;;;;;;1.23;100.00;93755.88;6268549;22;20176;-75
2023/01/27 09:03:46;;;;;;;12.57;7.73;;;;;;;1.16;100.00;93758.38;6268386;22;20188;-77
2023/01/27 09:06:14;;;;;;;17.63;10.93;;;;;;;0.89;100.00;93753.97;6271278;22;20171;-75
2023/01/27 09:08:41;;;;;;;23.70;12.97;;;;;;;0.74;100.00;93733.56;6268740;22;20171;-74
2023/01/27 09:11:10;;;;;;;24.13;12.87;;;;;;;0.95;100.00;93743.03;6267948;22;20177;-74
2023/01/27 09:13:38;;;;;;;22.23;11.77;;;;;;;1.01;100.00;93745.63;6269758;22;20173;-75
2023/01/27 09:16:06;;;;;;;19.03;10.30;;;;;;;1.06;100.00;93742.53;6268011;22;20174;-74
2023/01/27 09:18:33;;;;;;;23.60;13.13;;;;;;;0.95;100.00;93741.25;6267822;22;20201;-74
2023/01/27 09:21:03;;;;;;;24.90;14.03;;;;;;;0.86;100.00;93746.69;6266272;22;20224;-75
2023/01/27 09:23:30;;;;;;;24.83;13.93;;;;;;;0.92;100.00;93746.75;6266205;22;20188;-75
2023/01/27 09:25:57;;;;;;;15.43;9.40;;;;;;;0.83;100.00;93745.28;6268040;22;20178;-76
2023/01/27 09:28:24;;;;;;;23.30;12.40;;;;;;;0.74;100.00;93741.25;6269492;22;20166;-73
2023/01/27 09:30:57;;;;;;;21.17;12.07;;;;;;;0.70;100.00;93737.47;6267365;22;20618;-74
2023/01/27 09:33:24;;;;;;;23.90;11.10;;;;;;;0.66;100.00;93727.78;6267883;22;20162;-74
2023/01/27 09:35:57;;;;;;;18.00;10.40;;;;;;;0.66;100.00;93728.59;6268212;22;20584;-72
2023/01/27 09:38:28;;;;;;;20.90;12.27;;;;;;;0.72;100.00;93727.06;6268242;22;20232;-72
2023/01/27 09:41:15;;;;;;;21.50;12.47;;;;;;;0.76;100.00;93718.03;6269039;22;20168;-73
2023/01/27 09:44:11;;;;;;;23.87;13.43;;;;;;;0.80;100.00;93719.28;6270259;22;20611;-72
2023/01/27 09:47:07;;;;;;;25.50;13.97;;;;;;;0.79;100.00;93720.25;6270221;22;20676;-74
2023/01/27 09:50:02;;;;;;;19.97;11.17;;;;;;;0.73;100.00;93698.75;6269378;22;20159;-74
2023/01/27 09:52:54;;;;;;;19.43;10.53;;;;;;;0.68;100.00;93706.19;6268016;22;20176;-72
2023/01/27 09:55:30;;;;;;;15.20;9.27;;;;;;;0.55;100.00;93701.72;6268265;22;20169;-71
2023/01/27 09:58:06;;;;;;;25.00;10.73;;;;;;;0.50;100.00;93704.03;6270508;22;20183;-71
2023/01/27 10:00:45;;;;;;;15.27;9.87;;;;;;;0.52;100.00;93696.97;6266867;22;20219;-72
2023/01/27 10:03:46;;;;;;;14.67;9.67;;;;;;;0.53;100.00;93688.34;6268416;22;20171;-72
2023/01/27 10:06:38;;;;;;;18.40;10.57;;;;;;;0.62;100.00;93690.78;6267620;22;20192;-70
2023/01/27 10:09:46;;;;;;;16.47;9.67;;;;;;;0.73;100.00;93687.72;6270619;22;20159;-73
2023/01/27 10:12:26;;;;;;;17.43;9.67;;;;;;;0.77;100.00;93688.97;6271307;22;20157;-72
2023/01/27 10:15:06;;;;;;;21.57;11.20;;;;;;;0.76;100.00;93679.69;6267746;22;20157;-70
2023/01/27 10:17:46;;;;;;;18.87;10.17;;;;;;;0.83;100.00;93690.78;6268524;22;20197;-70
2023/01/27 10:20:28;;;;;;;16.20;8.97;;;;;;;0.60;100.00;93685.84;6269562;22;20177;-71
2023/01/27 10:23:05;;;;;;;15.77;9.57;;;;;;;0.55;100.00;93683.03;6269201;22;20223;-70
2023/01/27 10:25:47;;;;;;;16.13;10.37;;;;;;;0.49;100.00;93684.53;6268700;22;20157;-71
2023/01/27 10:28:17;;;;;;;20.10;11.43;;;;;;;0.48;100.00;93682.97;6267919;22;20164;-70
2023/01/27 10:30:53;;;;;;;21.37;11.30;;;;;;;0.51;100.00;93674.16;6270305;22;20192;-70
2023/01/27 10:33:21;;;;;;;22.67;11.10;;;;;;;0.45;100.00;93678.22;6268212;22;20264;-70
2023/01/27 10:35:53;;;;;;;19.27;11.47;;;;;;;0.47;100.00;93680.59;6268505;22;20170;-72
2023/01/27 10:38:33;;;;;;;20.70;12.60;;;;;;;0.55;100.00;93675.38;6272056;22;20173;-70
2023/01/27 10:41:11;;;;;;;28.33;14.53;;;;;;;0.60;100.00;93672.28;6270396;22;20161;-71
2023/01/27 10:43:51;;;;;;;24.50;15.03;;;;;;;0.62;100.00;93683.91;6270330;22;20156;-71
2023/01/27 10:46:31;;;;;;;25.67;13.00;;;;;;;0.73;100.00;93682.63;6269786;22;20161;-72
2023/01/27 10:49:05;;;;;;;21.07;12.73;;;;;;;0.58;100.00;93675.78;6271024;22;20624;-72
2023/01/27 10:51:38;;;;;;;20.43;12.07;;;;;;;0.67;100.00;93678.22;6269105;22;20153;-73
2023/01/27 10:54:12;;;;;;;18.63;12.03;;;;;;;0.78;100.00;93670.09;6269828;22;20957;-72
2023/01/27 10:56:44;;;;;;;12.23;8.20;;;;;;;0.77;100.00;93674.41;6272381;22;20157;-72
2023/01/27 10:59:22;;;;;;;17.90;10.37;;;;;;;0.73;100.00;93682.63;6269485;22;20181;-72
2023/01/27 11:01:55;;;;;;;19.30;12.13;;;;;;;0.79;100.00;93677.56;6270346;22;20207;-72
2023/01/27 11:04:33;;;;;;;22.30;13.07;;;;;;;0.64;100.00;93676.03;6271910;22;20473;-73
2023/01/27 11:07:01;;;;;;;17.13;10.67;;;;;;;0.54;100.00;93676.34;6271036;22;20180;-72
2023/01/27 11:09:31;;;;;;;21.80;13.40;;;;;;;0.53;100.00;93673.00;6269495;22;20169;-73
2023/01/27 11:12:02;;;;;;;20.40;12.93;;;;;;;0.49;100.00;93673.56;6270361;22;20170;-74
2023/01/27 11:14:31;;;;;;;21.80;13.40;;;;;;;0.51;100.00;93674.97;6271686;22;20153;-73
2023/01/27 11:17:07;;;;;;;18.50;11.67;;;;;;;0.49;100.00;93668.44;6268579;22;20679;-73
2023/01/27 11:19:42;;;;;;;16.73;10.93;;;;;;;0.46;100.00;93664.47;6270037;22;20183;-73
2023/01/27 11:22:20;;;;;;;16.13;11.17;;;;;;;0.41;100.00;93658.31;6271983;22;20162;-73
2023/01/27 11:24:53;;;;;;;20.63;12.77;;;;;;;0.45;100.00;93660.34;6270037;22;20157;-72
2023/01/27 11:27:31;;;;;;;17.53;11.17;;;;;;;0.45;100.00;93657.00;6269904;22;20188;-73
2023/01/27 11:30:06;;;;;;;16.17;10.30;;;;;;;0.39;100.00;93655.97;6270718;22;20506;-73
2023/01/27 11:32:48;;;;;;;16.07;9.83;;;;;;;0.47;100.00;93650.72;6271077;22;20206;-73
2023/01/27 11:35:16;;;;;;;18.67;11.63;;;;;;;0.38;100.00;93643.34;6269645;22;20190;-73
2023/01/27 11:37:47;;;;;;;22.60;12.57;;;;;;;0.50;100.00;93645.25;6270058;22;20169;-73
2023/01/27 11:40:17;;;;;;;26.80;13.80;;;;;;;0.35;100.00;93647.06;6272595;22;20178;-72
2023/01/27 11:42:45;;;;;;;30.03;14.80;;;;;;;0.46;100.00;93656.03;6269044;22;20159;-73
2023/01/27 11:45:15;;;;;;;23.93;12.90;;;;;;;0.49;100.00;93653.13;6269246;22;20180;-73
2023/01/27 11:47:44;;;;;;;28.47;14.33;;;;;;;0.44;100.00;93657.94;6272168;22;20159;-73
2023/01/27 11:50:16;;;;;;;30.00;17.53;;;;;;;0.45;100.00;93650.13;6269562;22;20162;-72
2023/01/27 11:52:46;;;;;;;21.67;12.27;;;;;;;0.40;100.00;93639.66;6269711;22;20559;-74
2023/01/27 11:55:18;;;;;;;20.83;12.53;;;;;;;0.35;100.00;93636.84;6271822;22;20157;-72
2023/01/27 11:57:51;;;;;;;19.47;11.23;;;;;;;0.31;100.00;93637.41;6269754;22;20211;-72
2023/01/27 12:00:24;;;;;;;18.50;10.80;;;;;;;0.30;100.00;93636.59;6269431;22;20177;-72
2023/01/27 12:02:58;;;;;;;20.27;10.90;;;;;;;0.40;100.00;93636.31;6271385;22;20159;-72
2023/01/27 12:05:30;;;;;;;14.47;9.87;;;;;;;0.38;100.00;93641.59;6269117;22;20186;-71
2023/01/27 12:08:00;;;;;;;19.63;11.90;;;;;;;0.36;100.00;93640.19;6269077;22;20154;-73
2023/01/27 12:10:30;;;;;;;17.27;10.67;;;;;;;0.32;100.00;93644.88;6270586;22;20151;-72
2023/01/27 12:12:58;;;;;;;15.07;9.77;;;;;;;0.41;100.00;93645.53;6243671;22;20174;-72
2023/01/27 12:15:27;;;;;;;16.53;9.67;;;;;;;0.27;100.00;93631.84;6268833;22;20166;-72